sensor_id;sensor_type;location;lat;lon;timestamp;P1;durP1;ratioP1;P2;durP2;ratioP2
10687;SDS011;5392;42.688;23.298;2024-03-17T00:01:49;28.80;;;14.88;;
10687;SDS011;5392;42.688;23.298;2024-03-17T00:04:15;32.22;;;14.40;;
10687;SDS011;5392;42.688;23.298;2024-03-17T00:06:40;31.67;;;14.57;;
10687;SDS011;5392;42.688;23.298;2024-03-17T00:09:06;33.55;;;15.10;;
10687;SDS011;5392;42.688;23.298;2024-03-17T00:11:34;36.47;;;15.15;;
10687;SDS011;5392;42.688;23.298;2024-03-17T00:14:01;34.90;;;14.88;;
10687;SDS011;5392;42.688;23.298;2024-03-17T00:16:27;31.02;;;13.95;;
10687;SDS011;5392;42.688;23.298;2024-03-17T00:18:53;27.02;;;14.30;;
10687;SDS011;5392;42.688;23.298;2024-03-17T00:21:18;28.13;;;14.70;;
10687;SDS011;5392;42.688;23.298;2024-03-17T00:23:46;31.60;;;14.05;;
10687;SDS011;5392;42.688;23.298;2024-03-17T00:26:14;29.58;;;14.68;;
10687;SDS011;5392;42.688;23.298;2024-03-17T00:28:40;34.10;;;14.75;;
10687;SDS011;5392;42.688;23.298;2024-03-17T00:31:05;26.85;;;13.13;;
10687;SDS011;5392;42.688;23.298;2024-03-17T00:33:31;29.67;;;14.15;;
10687;SDS011;5392;42.688;23.298;2024-03-17T00:35:56;31.27;;;13.73;;
10687;SDS011;5392;42.688;23.298;2024-03-17T00:38:24;28.50;;;14.02;;
10687;SDS011;5392;42.688;23.298;2024-03-17T00:40:50;87.47;;;19.40;;
10687;SDS011;5392;42.688;23.298;2024-03-17T00:43:15;40.78;;;15.02;;
10687;SDS011;5392;42.688;23.298;2024-03-17T00:45:41;34.03;;;14.35;;
10687;SDS011;5392;42.688;23.298;2024-03-17T00:48:06;28.30;;;13.50;;
10687;SDS011;5392;42.688;23.298;2024-03-17T00:50:32;31.70;;;13.90;;
10687;SDS011;5392;42.688;23.298;2024-03-17T00:52:58;32.75;;;14.60;;
10687;SDS011;5392;42.688;23.298;2024-03-17T00:55:23;32.60;;;13.88;;
10687;SDS011;5392;42.688;23.298;2024-03-17T00:57:49;35.40;;;14.52;;
10687;SDS011;5392;42.688;23.298;2024-03-17T01:00:14;36.42;;;15.40;;
10687;SDS011;5392;42.688;23.298;2024-03-17T01:02:40;31.33;;;14.60;;
10687;SDS011;5392;42.688;23.298;2024-03-17T01:05:06;29.23;;;13.10;;
10687;SDS011;5392;42.688;23.298;2024-03-17T01:07:32;29.88;;;14.15;;
10687;SDS011;5392;42.688;23.298;2024-03-17T01:09:58;26.60;;;12.85;;
10687;SDS011;5392;42.688;23.298;2024-03-17T01:12:24;29.63;;;13.40;;
10687;SDS011;5392;42.688;23.298;2024-03-17T01:17:16;27.03;;;11.63;;
10687;SDS011;5392;42.688;23.298;2024-03-17T01:19:44;30.50;;;14.05;;
10687;SDS011;5392;42.688;23.298;2024-03-17T01:22:09;27.77;;;14.10;;
10687;SDS011;5392;42.688;23.298;2024-03-17T01:24:35;31.75;;;13.52;;
10687;SDS011;5392;42.688;23.298;2024-03-17T01:27:00;29.65;;;14.98;;
10687;SDS011;5392;42.688;23.298;2024-03-17T01:29:26;28.85;;;14.35;;
10687;SDS011;5392;42.688;23.298;2024-03-17T01:31:52;35.55;;;15.18;;
10687;SDS011;5392;42.688;23.298;2024-03-17T01:34:20;27.17;;;13.32;;
10687;SDS011;5392;42.688;23.298;2024-03-17T01:36:47;32.28;;;14.40;;
10687;SDS011;5392;42.688;23.298;2024-03-17T01:39:12;25.33;;;13.18;;
10687;SDS011;5392;42.688;23.298;2024-03-17T01:41:38;31.30;;;14.82;;
10687;SDS011;5392;42.688;23.298;2024-03-17T01:44:04;27.40;;;12.88;;
10687;SDS011;5392;42.688;23.298;2024-03-17T01:46:30;27.70;;;12.77;;
10687;SDS011;5392;42.688;23.298;2024-03-17T01:48:56;26.45;;;12.40;;
10687;SDS011;5392;42.688;23.298;2024-03-17T01:51:22;33.42;;;14.35;;
10687;SDS011;5392;42.688;23.298;2024-03-17T01:56:14;28.73;;;12.97;;
10687;SDS011;5392;42.688;23.298;2024-03-17T01:58:44;26.45;;;13.00;;
10687;SDS011;5392;42.688;23.298;2024-03-17T02:01:11;26.35;;;12.63;;
10687;SDS011;5392;42.688;23.298;2024-03-17T02:03:39;24.75;;;11.57;;
10687;SDS011;5392;42.688;23.298;2024-03-17T02:06:07;28.13;;;13.38;;
10687;SDS011;5392;42.688;23.298;2024-03-17T02:08:50;29.30;;;12.10;;
10687;SDS011;5392;42.688;23.298;2024-03-17T02:11:29;30.02;;;12.50;;
10687;SDS011;5392;42.688;23.298;2024-03-17T02:13:56;29.00;;;12.57;;
10687;SDS011;5392;42.688;23.298;2024-03-17T02:16:22;28.38;;;12.50;;
10687;SDS011;5392;42.688;23.298;2024-03-17T02:18:48;31.42;;;12.50;;
10687;SDS011;5392;42.688;23.298;2024-03-17T02:21:19;24.95;;;12.35;;
10687;SDS011;5392;42.688;23.298;2024-03-17T02:23:47;33.47;;;12.73;;
10687;SDS011;5392;42.688;23.298;2024-03-17T02:26:13;27.02;;;12.10;;
10687;SDS011;5392;42.688;23.298;2024-03-17T02:28:42;31.15;;;12.18;;
10687;SDS011;5392;42.688;23.298;2024-03-17T02:31:10;34.05;;;14.63;;
10687;SDS011;5392;42.688;23.298;2024-03-17T02:33:37;26.65;;;13.00;;
10687;SDS011;5392;42.688;23.298;2024-03-17T02:38:29;26.38;;;11.48;;
10687;SDS011;5392;42.688;23.298;2024-03-17T02:41:15;25.13;;;11.25;;
10687;SDS011;5392;42.688;23.298;2024-03-17T02:43:41;25.40;;;11.45;;
10687;SDS011;5392;42.688;23.298;2024-03-17T02:46:06;22.95;;;12.20;;
10687;SDS011;5392;42.688;23.298;2024-03-17T02:48:36;32.83;;;13.63;;
10687;SDS011;5392;42.688;23.298;2024-03-17T02:51:03;26.75;;;12.27;;
10687;SDS011;5392;42.688;23.298;2024-03-17T02:53:29;25.60;;;11.93;;
10687;SDS011;5392;42.688;23.298;2024-03-17T02:55:55;29.58;;;12.88;;
10687;SDS011;5392;42.688;23.298;2024-03-17T02:58:20;27.45;;;12.70;;
10687;SDS011;5392;42.688;23.298;2024-03-17T03:00:46;27.38;;;12.70;;
10687;SDS011;5392;42.688;23.298;2024-03-17T03:03:11;26.83;;;13.02;;
10687;SDS011;5392;42.688;23.298;2024-03-17T03:05:36;27.33;;;13.00;;
10687;SDS011;5392;42.688;23.298;2024-03-17T03:08:03;26.88;;;12.77;;
10687;SDS011;5392;42.688;23.298;2024-03-17T03:12:55;22.70;;;10.32;;
10687;SDS011;5392;42.688;23.298;2024-03-17T03:15:20;24.92;;;12.25;;
10687;SDS011;5392;42.688;23.298;2024-03-17T03:17:46;27.88;;;12.38;;
10687;SDS011;5392;42.688;23.298;2024-03-17T03:20:11;29.25;;;13.13;;
10687;SDS011;5392;42.688;23.298;2024-03-17T03:22:37;27.48;;;12.90;;
10687;SDS011;5392;42.688;23.298;2024-03-17T03:25:02;29.02;;;12.38;;
10687;SDS011;5392;42.688;23.298;2024-03-17T03:27:28;31.08;;;12.95;;
10687;SDS011;5392;42.688;23.298;2024-03-17T03:29:54;33.67;;;13.02;;
10687;SDS011;5392;42.688;23.298;2024-03-17T03:32:21;28.67;;;13.30;;
10687;SDS011;5392;42.688;23.298;2024-03-17T03:34:46;26.00;;;11.93;;
10687;SDS011;5392;42.688;23.298;2024-03-17T03:37:12;25.50;;;12.90;;
10687;SDS011;5392;42.688;23.298;2024-03-17T03:39:38;24.15;;;13.25;;
10687;SDS011;5392;42.688;23.298;2024-03-17T03:42:03;25.85;;;13.15;;
10687;SDS011;5392;42.688;23.298;2024-03-17T03:44:29;28.63;;;13.00;;
10687;SDS011;5392;42.688;23.298;2024-03-17T03:46:54;28.83;;;12.43;;
10687;SDS011;5392;42.688;23.298;2024-03-17T03:49:26;25.45;;;13.00;;
10687;SDS011;5392;42.688;23.298;2024-03-17T03:51:53;25.45;;;12.23;;
10687;SDS011;5392;42.688;23.298;2024-03-17T03:54:19;29.48;;;12.60;;
10687;SDS011;5392;42.688;23.298;2024-03-17T03:56:44;29.02;;;13.18;;
10687;SDS011;5392;42.688;23.298;2024-03-17T03:59:10;29.63;;;11.57;;
10687;SDS011;5392;42.688;23.298;2024-03-17T04:01:35;24.90;;;12.45;;
10687;SDS011;5392;42.688;23.298;2024-03-17T04:04:01;29.85;;;13.10;;
10687;SDS011;5392;42.688;23.298;2024-03-17T04:06:28;28.88;;;13.02;;
10687;SDS011;5392;42.688;23.298;2024-03-17T04:08:54;29.00;;;13.18;;
10687;SDS011;5392;42.688;23.298;2024-03-17T04:11:19;30.23;;;13.38;;
10687;SDS011;5392;42.688;23.298;2024-03-17T04:13:45;29.27;;;13.40;;
10687;SDS011;5392;42.688;23.298;2024-03-17T04:16:12;26.15;;;13.48;;
10687;SDS011;5392;42.688;23.298;2024-03-17T04:18:37;29.98;;;13.45;;
10687;SDS011;5392;42.688;23.298;2024-03-17T04:21:06;29.13;;;13.32;;
10687;SDS011;5392;42.688;23.298;2024-03-17T04:23:32;24.95;;;12.65;;
10687;SDS011;5392;42.688;23.298;2024-03-17T04:25:58;31.05;;;13.68;;
10687;SDS011;5392;42.688;23.298;2024-03-17T04:28:25;28.35;;;13.30;;
10687;SDS011;5392;42.688;23.298;2024-03-17T04:30:51;31.77;;;14.40;;
10687;SDS011;5392;42.688;23.298;2024-03-17T04:33:17;25.63;;;13.35;;
10687;SDS011;5392;42.688;23.298;2024-03-17T04:35:42;32.78;;;13.90;;
10687;SDS011;5392;42.688;23.298;2024-03-17T04:38:08;31.65;;;12.93;;
10687;SDS011;5392;42.688;23.298;2024-03-17T04:40:34;27.25;;;13.02;;
10687;SDS011;5392;42.688;23.298;2024-03-17T04:43:04;28.35;;;12.48;;
10687;SDS011;5392;42.688;23.298;2024-03-17T04:45:30;31.70;;;13.90;;
10687;SDS011;5392;42.688;23.298;2024-03-17T04:47:55;29.30;;;14.13;;
10687;SDS011;5392;42.688;23.298;2024-03-17T04:50:21;29.02;;;13.95;;
10687;SDS011;5392;42.688;23.298;2024-03-17T04:52:46;30.70;;;13.45;;
10687;SDS011;5392;42.688;23.298;2024-03-17T04:55:12;33.90;;;14.88;;
10687;SDS011;5392;42.688;23.298;2024-03-17T04:57:38;33.38;;;13.23;;
10687;SDS011;5392;42.688;23.298;2024-03-17T05:00:03;29.88;;;13.63;;
10687;SDS011;5392;42.688;23.298;2024-03-17T05:02:32;30.02;;;12.93;;
10687;SDS011;5392;42.688;23.298;2024-03-17T05:04:58;25.70;;;13.85;;
10687;SDS011;5392;42.688;23.298;2024-03-17T05:07:23;30.05;;;14.65;;
10687;SDS011;5392;42.688;23.298;2024-03-17T05:09:49;28.23;;;13.45;;
10687;SDS011;5392;42.688;23.298;2024-03-17T05:12:15;25.95;;;12.80;;
10687;SDS011;5392;42.688;23.298;2024-03-17T05:14:40;25.00;;;12.98;;
10687;SDS011;5392;42.688;23.298;2024-03-17T05:17:06;26.13;;;12.82;;
10687;SDS011;5392;42.688;23.298;2024-03-17T05:19:32;22.45;;;12.65;;
10687;SDS011;5392;42.688;23.298;2024-03-17T05:21:57;23.55;;;12.70;;
10687;SDS011;5392;42.688;23.298;2024-03-17T05:24:23;23.98;;;12.15;;
10687;SDS011;5392;42.688;23.298;2024-03-17T05:27:06;22.65;;;11.57;;
10687;SDS011;5392;42.688;23.298;2024-03-17T05:29:32;23.35;;;11.73;;
10687;SDS011;5392;42.688;23.298;2024-03-17T05:31:58;27.80;;;12.60;;
10687;SDS011;5392;42.688;23.298;2024-03-17T05:34:23;24.92;;;12.35;;
10687;SDS011;5392;42.688;23.298;2024-03-17T05:36:50;33.10;;;12.48;;
10687;SDS011;5392;42.688;23.298;2024-03-17T05:39:16;30.30;;;12.68;;
10687;SDS011;5392;42.688;23.298;2024-03-17T05:41:42;26.10;;;12.32;;
10687;SDS011;5392;42.688;23.298;2024-03-17T05:44:08;26.15;;;11.90;;
10687;SDS011;5392;42.688;23.298;2024-03-17T05:46:34;27.92;;;12.73;;
10687;SDS011;5392;42.688;23.298;2024-03-17T05:48:59;22.83;;;11.27;;
10687;SDS011;5392;42.688;23.298;2024-03-17T05:51:25;22.02;;;12.23;;
10687;SDS011;5392;42.688;23.298;2024-03-17T05:53:52;20.88;;;11.95;;
10687;SDS011;5392;42.688;23.298;2024-03-17T05:56:18;23.85;;;12.70;;
10687;SDS011;5392;42.688;23.298;2024-03-17T05:58:43;25.35;;;12.00;;
10687;SDS011;5392;42.688;23.298;2024-03-17T06:01:09;22.38;;;11.88;;
10687;SDS011;5392;42.688;23.298;2024-03-17T06:03:36;22.30;;;11.60;;
10687;SDS011;5392;42.688;23.298;2024-03-17T06:06:02;20.20;;;10.98;;
10687;SDS011;5392;42.688;23.298;2024-03-17T06:08:28;27.67;;;11.23;;
10687;SDS011;5392;42.688;23.298;2024-03-17T06:13:23;26.30;;;10.48;;
10687;SDS011;5392;42.688;23.298;2024-03-17T06:15:49;20.38;;;10.93;;
10687;SDS011;5392;42.688;23.298;2024-03-17T06:20:43;22.20;;;10.52;;
10687;SDS011;5392;42.688;23.298;2024-03-17T06:23:10;19.33;;;10.75;;
10687;SDS011;5392;42.688;23.298;2024-03-17T06:25:44;21.40;;;12.48;;
10687;SDS011;5392;42.688;23.298;2024-03-17T06:28:11;18.35;;;10.90;;
10687;SDS011;5392;42.688;23.298;2024-03-17T06:30:44;19.30;;;11.68;;
10687;SDS011;5392;42.688;23.298;2024-03-17T06:33:13;20.25;;;10.75;;
10687;SDS011;5392;42.688;23.298;2024-03-17T06:35:46;20.55;;;10.77;;
10687;SDS011;5392;42.688;23.298;2024-03-17T06:38:12;21.60;;;11.38;;
10687;SDS011;5392;42.688;23.298;2024-03-17T06:43:03;18.73;;;10.70;;
10687;SDS011;5392;42.688;23.298;2024-03-17T06:50:20;17.98;;;9.85;;
10687;SDS011;5392;42.688;23.298;2024-03-17T06:52:46;27.23;;;11.38;;
10687;SDS011;5392;42.688;23.298;2024-03-17T06:57:37;24.55;;;12.80;;
10687;SDS011;5392;42.688;23.298;2024-03-17T07:02:32;22.95;;;12.15;;
10687;SDS011;5392;42.688;23.298;2024-03-17T07:04:57;22.30;;;12.35;;
10687;SDS011;5392;42.688;23.298;2024-03-17T07:09:51;23.65;;;13.27;;
10687;SDS011;5392;42.688;23.298;2024-03-17T07:14:42;22.87;;;11.77;;
10687;SDS011;5392;42.688;23.298;2024-03-17T07:19:33;25.58;;;11.55;;
10687;SDS011;5392;42.688;23.298;2024-03-17T07:22:00;21.38;;;11.30;;
10687;SDS011;5392;42.688;23.298;2024-03-17T07:26:52;23.00;;;11.63;;
10687;SDS011;5392;42.688;23.298;2024-03-17T07:29:18;23.05;;;11.27;;
10687;SDS011;5392;42.688;23.298;2024-03-17T07:36:35;19.85;;;10.82;;
10687;SDS011;5392;42.688;23.298;2024-03-17T07:41:27;17.98;;;10.00;;
10687;SDS011;5392;42.688;23.298;2024-03-17T07:46:18;18.17;;;9.40;;
10687;SDS011;5392;42.688;23.298;2024-03-17T07:48:44;18.08;;;9.60;;
10687;SDS011;5392;42.688;23.298;2024-03-17T07:51:11;18.65;;;9.32;;
10687;SDS011;5392;42.688;23.298;2024-03-17T07:53:38;16.48;;;9.00;;
10687;SDS011;5392;42.688;23.298;2024-03-17T07:56:06;19.58;;;8.73;;
10687;SDS011;5392;42.688;23.298;2024-03-17T07:58:40;16.70;;;9.55;;
10687;SDS011;5392;42.688;23.298;2024-03-17T08:01:07;16.60;;;8.48;;
10687;SDS011;5392;42.688;23.298;2024-03-17T08:03:36;13.32;;;7.55;;
10687;SDS011;5392;42.688;23.298;2024-03-17T08:08:47;12.27;;;7.35;;
10687;SDS011;5392;42.688;23.298;2024-03-17T08:11:13;12.77;;;7.70;;
10687;SDS011;5392;42.688;23.298;2024-03-17T08:13:38;13.88;;;7.40;;
10687;SDS011;5392;42.688;23.298;2024-03-17T08:16:05;12.80;;;7.85;;
10687;SDS011;5392;42.688;23.298;2024-03-17T08:18:32;17.23;;;8.18;;
10687;SDS011;5392;42.688;23.298;2024-03-17T08:20:59;15.25;;;7.47;;
10687;SDS011;5392;42.688;23.298;2024-03-17T08:23:26;13.52;;;7.30;;
10687;SDS011;5392;42.688;23.298;2024-03-17T08:28:18;13.18;;;7.63;;
10687;SDS011;5392;42.688;23.298;2024-03-17T08:33:15;13.52;;;7.07;;
10687;SDS011;5392;42.688;23.298;2024-03-17T08:38:06;9.00;;;6.33;;
10687;SDS011;5392;42.688;23.298;2024-03-17T08:42:57;12.02;;;6.50;;
10687;SDS011;5392;42.688;23.298;2024-03-17T08:45:22;11.07;;;6.40;;
10687;SDS011;5392;42.688;23.298;2024-03-17T08:47:50;13.93;;;6.72;;
10687;SDS011;5392;42.688;23.298;2024-03-17T08:50:17;10.52;;;6.28;;
10687;SDS011;5392;42.688;23.298;2024-03-17T08:52:43;15.25;;;8.05;;
10687;SDS011;5392;42.688;23.298;2024-03-17T08:55:08;12.85;;;7.60;;
10687;SDS011;5392;42.688;23.298;2024-03-17T08:57:38;14.00;;;8.27;;
10687;SDS011;5392;42.688;23.298;2024-03-17T09:00:04;15.55;;;8.95;;
10687;SDS011;5392;42.688;23.298;2024-03-17T09:02:30;15.65;;;7.95;;
10687;SDS011;5392;42.688;23.298;2024-03-17T09:04:56;17.08;;;8.70;;
10687;SDS011;5392;42.688;23.298;2024-03-17T09:07:21;15.25;;;9.57;;
10687;SDS011;5392;42.688;23.298;2024-03-17T09:09:47;15.95;;;10.07;;
10687;SDS011;5392;42.688;23.298;2024-03-17T09:12:13;18.20;;;9.82;;
10687;SDS011;5392;42.688;23.298;2024-03-17T09:14:38;16.17;;;9.77;;
10687;SDS011;5392;42.688;23.298;2024-03-17T09:17:06;15.93;;;9.40;;
10687;SDS011;5392;42.688;23.298;2024-03-17T09:19:31;16.77;;;9.18;;
10687;SDS011;5392;42.688;23.298;2024-03-17T09:21:58;19.23;;;10.20;;
10687;SDS011;5392;42.688;23.298;2024-03-17T09:24:24;17.63;;;9.98;;
10687;SDS011;5392;42.688;23.298;2024-03-17T09:26:49;15.45;;;8.65;;
10687;SDS011;5392;42.688;23.298;2024-03-17T09:29:15;14.80;;;8.13;;
10687;SDS011;5392;42.688;23.298;2024-03-17T09:31:41;13.48;;;8.00;;
10687;SDS011;5392;42.688;23.298;2024-03-17T09:34:07;14.25;;;7.35;;
10687;SDS011;5392;42.688;23.298;2024-03-17T09:36:33;13.13;;;8.23;;
10687;SDS011;5392;42.688;23.298;2024-03-17T09:38:58;12.15;;;7.93;;
10687;SDS011;5392;42.688;23.298;2024-03-17T09:41:25;11.80;;;7.43;;
10687;SDS011;5392;42.688;23.298;2024-03-17T09:43:55;11.60;;;7.03;;
10687;SDS011;5392;42.688;23.298;2024-03-17T09:46:22;11.52;;;7.70;;
10687;SDS011;5392;42.688;23.298;2024-03-17T09:48:48;8.23;;;6.45;;
10687;SDS011;5392;42.688;23.298;2024-03-17T09:51:18;11.30;;;6.35;;
10687;SDS011;5392;42.688;23.298;2024-03-17T09:53:47;10.05;;;7.18;;
10687;SDS011;5392;42.688;23.298;2024-03-17T09:56:13;6.50;;;5.13;;
10687;SDS011;5392;42.688;23.298;2024-03-17T09:58:41;8.13;;;5.47;;
10687;SDS011;5392;42.688;23.298;2024-03-17T10:01:13;8.38;;;5.18;;
10687;SDS011;5392;42.688;23.298;2024-03-17T10:06:09;6.75;;;4.95;;
10687;SDS011;5392;42.688;23.298;2024-03-17T10:11:11;9.68;;;4.80;;
10687;SDS011;5392;42.688;23.298;2024-03-17T10:13:38;7.00;;;5.00;;
10687;SDS011;5392;42.688;23.298;2024-03-17T10:16:04;6.68;;;5.00;;
10687;SDS011;5392;42.688;23.298;2024-03-17T10:18:30;5.50;;;4.50;;
10687;SDS011;5392;42.688;23.298;2024-03-17T10:20:56;7.10;;;4.20;;
10687;SDS011;5392;42.688;23.298;2024-03-17T10:23:24;5.90;;;3.88;;
10687;SDS011;5392;42.688;23.298;2024-03-17T10:25:49;6.28;;;3.60;;
10687;SDS011;5392;42.688;23.298;2024-03-17T10:30:42;5.97;;;3.70;;
10687;SDS011;5392;42.688;23.298;2024-03-17T10:33:24;5.28;;;3.97;;
10687;SDS011;5392;42.688;23.298;2024-03-17T10:35:50;5.40;;;2.83;;
10687;SDS011;5392;42.688;23.298;2024-03-17T10:38:23;3.50;;;2.95;;
10687;SDS011;5392;42.688;23.298;2024-03-17T10:40:49;5.22;;;3.15;;
10687;SDS011;5392;42.688;23.298;2024-03-17T10:43:14;4.85;;;3.90;;
10687;SDS011;5392;42.688;23.298;2024-03-17T10:45:41;8.10;;;4.20;;
10687;SDS011;5392;42.688;23.298;2024-03-17T10:48:08;7.47;;;4.55;;
10687;SDS011;5392;42.688;23.298;2024-03-17T10:50:37;8.05;;;4.40;;
10687;SDS011;5392;42.688;23.298;2024-03-17T10:53:04;5.47;;;3.22;;
10687;SDS011;5392;42.688;23.298;2024-03-17T10:55:44;3.53;;;3.22;;
10687;SDS011;5392;42.688;23.298;2024-03-17T10:58:23;5.65;;;3.13;;
10687;SDS011;5392;42.688;23.298;2024-03-17T11:00:57;4.15;;;3.10;;
10687;SDS011;5392;42.688;23.298;2024-03-17T11:03:24;5.85;;;3.53;;
10687;SDS011;5392;42.688;23.298;2024-03-17T11:05:50;4.90;;;3.83;;
10687;SDS011;5392;42.688;23.298;2024-03-17T11:08:17;5.97;;;4.00;;
10687;SDS011;5392;42.688;23.298;2024-03-17T11:10:50;5.13;;;4.30;;
10687;SDS011;5392;42.688;23.298;2024-03-17T11:13:37;6.43;;;4.07;;
10687;SDS011;5392;42.688;23.298;2024-03-17T11:16:04;9.63;;;5.18;;
10687;SDS011;5392;42.688;23.298;2024-03-17T11:18:49;8.98;;;4.32;;
10687;SDS011;5392;42.688;23.298;2024-03-17T11:23:55;7.57;;;4.47;;
10687;SDS011;5392;42.688;23.298;2024-03-17T11:26:26;6.50;;;4.25;;
10687;SDS011;5392;42.688;23.298;2024-03-17T11:28:53;4.68;;;3.50;;
10687;SDS011;5392;42.688;23.298;2024-03-17T11:31:38;5.70;;;3.30;;
10687;SDS011;5392;42.688;23.298;2024-03-17T11:34:25;6.90;;;3.45;;
10687;SDS011;5392;42.688;23.298;2024-03-17T11:36:55;5.10;;;3.10;;
10687;SDS011;5392;42.688;23.298;2024-03-17T11:39:45;4.70;;;3.25;;
10687;SDS011;5392;42.688;23.298;2024-03-17T11:42:26;4.45;;;3.92;;
10687;SDS011;5392;42.688;23.298;2024-03-17T11:44:56;4.43;;;3.15;;
10687;SDS011;5392;42.688;23.298;2024-03-17T11:47:23;6.05;;;4.03;;
10687;SDS011;5392;42.688;23.298;2024-03-17T11:49:57;3.85;;;2.97;;
10687;SDS011;5392;42.688;23.298;2024-03-17T11:52:26;4.22;;;3.53;;
10687;SDS011;5392;42.688;23.298;2024-03-17T11:54:52;7.43;;;3.65;;
10687;SDS011;5392;42.688;23.298;2024-03-17T11:57:21;4.65;;;3.53;;
10687;SDS011;5392;42.688;23.298;2024-03-17T11:59:48;4.35;;;3.20;;
10687;SDS011;5392;42.688;23.298;2024-03-17T12:02:19;4.40;;;3.50;;
10687;SDS011;5392;42.688;23.298;2024-03-17T12:04:47;7.00;;;4.28;;
10687;SDS011;5392;42.688;23.298;2024-03-17T12:07:14;4.97;;;3.47;;
10687;SDS011;5392;42.688;23.298;2024-03-17T12:09:44;5.53;;;3.80;;
10687;SDS011;5392;42.688;23.298;2024-03-17T12:14:44;6.15;;;4.38;;
10687;SDS011;5392;42.688;23.298;2024-03-17T12:17:11;5.43;;;3.85;;
10687;SDS011;5392;42.688;23.298;2024-03-17T12:19:39;5.95;;;3.75;;
10687;SDS011;5392;42.688;23.298;2024-03-17T12:22:05;5.95;;;3.33;;
10687;SDS011;5392;42.688;23.298;2024-03-17T12:24:35;6.25;;;3.60;;
10687;SDS011;5392;42.688;23.298;2024-03-17T12:27:05;7.93;;;4.28;;
10687;SDS011;5392;42.688;23.298;2024-03-17T12:29:37;6.97;;;4.38;;
10687;SDS011;5392;42.688;23.298;2024-03-17T12:32:16;4.05;;;3.08;;
10687;SDS011;5392;42.688;23.298;2024-03-17T12:34:44;8.40;;;4.22;;
10687;SDS011;5392;42.688;23.298;2024-03-17T12:37:16;6.53;;;3.55;;
10687;SDS011;5392;42.688;23.298;2024-03-17T12:39:44;5.63;;;4.10;;
10687;SDS011;5392;42.688;23.298;2024-03-17T12:42:11;7.32;;;4.05;;
10687;SDS011;5392;42.688;23.298;2024-03-17T12:47:21;7.80;;;4.80;;
10687;SDS011;5392;42.688;23.298;2024-03-17T12:49:48;4.82;;;3.83;;
10687;SDS011;5392;42.688;23.298;2024-03-17T12:52:22;8.25;;;5.22;;
10687;SDS011;5392;42.688;23.298;2024-03-17T12:55:02;5.93;;;4.45;;
10687;SDS011;5392;42.688;23.298;2024-03-17T12:57:49;9.05;;;4.85;;
10687;SDS011;5392;42.688;23.298;2024-03-17T13:00:34;7.40;;;4.80;;
10687;SDS011;5392;42.688;23.298;2024-03-17T13:03:00;6.43;;;4.30;;
10687;SDS011;5392;42.688;23.298;2024-03-17T13:05:33;6.85;;;4.63;;
10687;SDS011;5392;42.688;23.298;2024-03-17T13:08:00;5.50;;;3.80;;
10687;SDS011;5392;42.688;23.298;2024-03-17T13:10:26;7.35;;;4.88;;
10687;SDS011;5392;42.688;23.298;2024-03-17T13:13:03;8.38;;;4.85;;
10687;SDS011;5392;42.688;23.298;2024-03-17T13:15:33;7.82;;;4.75;;
10687;SDS011;5392;42.688;23.298;2024-03-17T13:18:03;11.68;;;5.80;;
10687;SDS011;5392;42.688;23.298;2024-03-17T13:20:34;8.38;;;5.05;;
10687;SDS011;5392;42.688;23.298;2024-03-17T13:23:00;8.25;;;5.70;;
10687;SDS011;5392;42.688;23.298;2024-03-17T13:25:27;8.00;;;5.35;;
10687;SDS011;5392;42.688;23.298;2024-03-17T13:28:01;8.48;;;4.85;;
10687;SDS011;5392;42.688;23.298;2024-03-17T13:30:29;8.07;;;5.55;;
10687;SDS011;5392;42.688;23.298;2024-03-17T13:32:55;9.80;;;5.75;;
10687;SDS011;5392;42.688;23.298;2024-03-17T13:35:28;8.05;;;5.05;;
10687;SDS011;5392;42.688;23.298;2024-03-17T13:37:55;9.20;;;5.35;;
10687;SDS011;5392;42.688;23.298;2024-03-17T13:40:26;9.02;;;5.20;;
10687;SDS011;5392;42.688;23.298;2024-03-17T13:45:19;5.82;;;4.70;;
10687;SDS011;5392;42.688;23.298;2024-03-17T13:47:58;7.75;;;5.25;;
10687;SDS011;5392;42.688;23.298;2024-03-17T13:50:26;10.68;;;5.68;;
10687;SDS011;5392;42.688;23.298;2024-03-17T13:52:52;9.77;;;5.70;;
10687;SDS011;5392;42.688;23.298;2024-03-17T13:57:45;9.40;;;4.90;;
10687;SDS011;5392;42.688;23.298;2024-03-17T14:00:14;8.43;;;4.72;;
10687;SDS011;5392;42.688;23.298;2024-03-17T14:02:47;6.70;;;5.30;;
10687;SDS011;5392;42.688;23.298;2024-03-17T14:05:15;9.27;;;5.90;;
10687;SDS011;5392;42.688;23.298;2024-03-17T14:07:42;7.90;;;5.10;;
10687;SDS011;5392;42.688;23.298;2024-03-17T14:10:08;9.18;;;5.30;;
10687;SDS011;5392;42.688;23.298;2024-03-17T14:12:35;7.35;;;4.95;;
10687;SDS011;5392;42.688;23.298;2024-03-17T14:15:03;10.70;;;5.80;;
10687;SDS011;5392;42.688;23.298;2024-03-17T14:17:30;9.25;;;5.20;;
10687;SDS011;5392;42.688;23.298;2024-03-17T14:22:21;6.68;;;4.72;;
10687;SDS011;5392;42.688;23.298;2024-03-17T14:27:12;9.90;;;5.20;;
10687;SDS011;5392;42.688;23.298;2024-03-17T14:29:38;7.93;;;5.40;;
10687;SDS011;5392;42.688;23.298;2024-03-17T14:34:30;9.10;;;5.00;;
10687;SDS011;5392;42.688;23.298;2024-03-17T14:37:01;6.90;;;4.75;;
10687;SDS011;5392;42.688;23.298;2024-03-17T14:39:28;7.55;;;5.20;;
10687;SDS011;5392;42.688;23.298;2024-03-17T14:41:55;7.32;;;5.00;;
10687;SDS011;5392;42.688;23.298;2024-03-17T14:44:20;12.05;;;5.28;;
10687;SDS011;5392;42.688;23.298;2024-03-17T14:49:12;8.27;;;4.68;;
10687;SDS011;5392;42.688;23.298;2024-03-17T14:54:03;8.73;;;5.25;;
10687;SDS011;5392;42.688;23.298;2024-03-17T14:56:30;8.82;;;5.65;;
10687;SDS011;5392;42.688;23.298;2024-03-17T14:58:56;14.25;;;7.15;;
10687;SDS011;5392;42.688;23.298;2024-03-17T15:03:47;12.82;;;6.05;;
10687;SDS011;5392;42.688;23.298;2024-03-17T15:08:39;8.38;;;4.90;;
10687;SDS011;5392;42.688;23.298;2024-03-17T15:13:33;10.77;;;5.68;;
10687;SDS011;5392;42.688;23.298;2024-03-17T15:16:00;9.73;;;5.85;;
10687;SDS011;5392;42.688;23.298;2024-03-17T15:18:28;11.18;;;6.45;;
10687;SDS011;5392;42.688;23.298;2024-03-17T15:23:23;10.52;;;5.35;;
10687;SDS011;5392;42.688;23.298;2024-03-17T15:26:03;9.88;;;5.78;;
10687;SDS011;5392;42.688;23.298;2024-03-17T15:28:40;13.23;;;5.43;;
10687;SDS011;5392;42.688;23.298;2024-03-17T15:31:07;10.57;;;5.35;;
10687;SDS011;5392;42.688;23.298;2024-03-17T15:36:05;10.32;;;5.40;;
10687;SDS011;5392;42.688;23.298;2024-03-17T15:38:31;13.70;;;5.47;;
10687;SDS011;5392;42.688;23.298;2024-03-17T15:41:07;7.93;;;5.47;;
10687;SDS011;5392;42.688;23.298;2024-03-17T15:46:22;11.52;;;5.65;;
10687;SDS011;5392;42.688;23.298;2024-03-17T15:48:48;9.45;;;5.85;;
10687;SDS011;5392;42.688;23.298;2024-03-17T15:51:14;9.02;;;6.40;;
10687;SDS011;5392;42.688;23.298;2024-03-17T15:53:42;12.23;;;6.00;;
10687;SDS011;5392;42.688;23.298;2024-03-17T15:56:09;9.52;;;6.15;;
10687;SDS011;5392;42.688;23.298;2024-03-17T15:58:35;14.82;;;6.45;;
10687;SDS011;5392;42.688;23.298;2024-03-17T16:03:30;18.17;;;8.63;;
10687;SDS011;5392;42.688;23.298;2024-03-17T16:05:59;14.05;;;7.90;;
10687;SDS011;5392;42.688;23.298;2024-03-17T16:08:28;16.20;;;9.32;;
10687;SDS011;5392;42.688;23.298;2024-03-17T16:10:57;16.40;;;8.77;;
10687;SDS011;5392;42.688;23.298;2024-03-17T16:13:24;19.20;;;9.38;;
10687;SDS011;5392;42.688;23.298;2024-03-17T16:15:53;12.88;;;8.07;;
10687;SDS011;5392;42.688;23.298;2024-03-17T16:18:22;15.77;;;8.45;;
10687;SDS011;5392;42.688;23.298;2024-03-17T16:23:30;16.30;;;9.85;;
10687;SDS011;5392;42.688;23.298;2024-03-17T16:25:59;15.20;;;8.95;;
10687;SDS011;5392;42.688;23.298;2024-03-17T16:28:26;12.85;;;8.02;;